createdAt,value
2022-12-14T00:00:23.565Z,36.08
2022-12-14T00:03:25.206Z,34.13
2022-12-14T00:06:29.816Z,39.25
2022-12-14T00:09:31.302Z,37.10
2022-12-14T00:12:32.794Z,36.35
2022-12-14T00:15:36.127Z,35.30
2022-12-14T00:18:38.739Z,37.47
2022-12-14T00:21:40.201Z,42.17
2022-12-14T00:24:41.947Z,36.97
2022-12-14T00:27:45.030Z,35.65
2022-12-14T00:30:46.569Z,37.88
2022-12-14T00:33:48.332Z,41.10
2022-12-14T00:36:49.862Z,38.47
2022-12-14T00:39:51.511Z,37.47
2022-12-14T00:42:53.219Z,37.35
2022-12-14T00:45:55.200Z,35.05
2022-12-14T00:48:56.717Z,40.03
2022-12-14T00:51:58.265Z,38.22
2022-12-14T00:55:00.437Z,37.40
2022-12-14T00:58:01.999Z,37.85
2022-12-14T01:01:06.882Z,39.70
2022-12-14T01:04:22.378Z,38.85
2022-12-14T01:07:24.060Z,38.78
2022-12-14T01:10:25.583Z,33.88
2022-12-14T01:13:27.372Z,38.97
2022-12-14T01:16:29.260Z,39.67
2022-12-14T01:19:31.065Z,37.40
2022-12-14T01:22:32.531Z,39.20
2022-12-14T01:25:34.212Z,36.75
2022-12-14T01:28:36.404Z,35.70
2022-12-14T01:31:38.918Z,42.42
2022-12-14T01:34:40.531Z,33.20
2022-12-14T01:37:42.068Z,37.15
2022-12-14T01:40:43.508Z,40.40
2022-12-14T01:43:50.602Z,37.30
2022-12-14T01:46:59.771Z,40.10
2022-12-14T01:50:10.797Z,38.42
2022-12-14T01:53:18.484Z,38.03
2022-12-14T01:56:20.140Z,33.88
2022-12-14T01:59:31.143Z,37.45
2022-12-14T02:02:33.082Z,39.60
2022-12-14T02:05:37.564Z,38.60
2022-12-14T02:08:39.669Z,39.70
2022-12-14T02:11:55.523Z,38.20
2022-12-14T02:14:57.647Z,38.58
2022-12-14T02:18:01.883Z,41.58
2022-12-14T02:21:34.236Z,33.78
2022-12-14T02:24:49.273Z,36.63
2022-12-14T02:28:01.994Z,35.33
2022-12-14T02:31:26.222Z,38.20
2022-12-14T02:37:40.364Z,36.47
2022-12-14T02:41:03.471Z,37.65
2022-12-14T02:44:19.986Z,36.03
2022-12-14T02:47:35.272Z,41.92
2022-12-14T02:50:49.190Z,36.92
2022-12-14T02:54:24.808Z,37.25
2022-12-14T02:57:37.170Z,39.75
2022-12-14T03:00:39.020Z,39.90
2022-12-14T03:03:41.436Z,34.92
2022-12-14T03:06:58.436Z,38.72
2022-12-14T03:10:14.875Z,35.13
2022-12-14T03:13:44.663Z,37.92
2022-12-14T03:16:50.315Z,36.40
2022-12-14T03:20:12.305Z,35.72
2022-12-14T03:23:21.457Z,38.13
2022-12-14T03:26:45.613Z,40.10
2022-12-14T03:29:55.244Z,40.28
2022-12-14T03:33:03.556Z,39.40
2022-12-14T03:36:14.219Z,39.28
2022-12-14T03:39:29.451Z,38.72
2022-12-14T03:42:54.825Z,39.78
2022-12-14T03:46:08.287Z,43.05
2022-12-14T03:49:15.516Z,42.60
2022-12-14T03:52:35.168Z,42.03
2022-12-14T03:56:00.964Z,36.38
2022-12-14T03:59:12.300Z,39.80
2022-12-14T04:02:19.353Z,36.20
2022-12-14T04:05:20.942Z,38.17
2022-12-14T04:08:31.431Z,40.47
2022-12-14T04:11:56.726Z,36.80
2022-12-14T04:15:30.231Z,37.25
2022-12-14T04:18:59.691Z,32.22
2022-12-14T04:22:13.924Z,37.92
2022-12-14T04:25:40.572Z,38.50
2022-12-14T04:29:10.961Z,36.70
2022-12-14T04:32:22.185Z,38.53
2022-12-14T04:35:40.169Z,32.08
2022-12-14T04:38:44.120Z,35.30
2022-12-14T04:41:50.129Z,37.35
2022-12-14T04:45:01.219Z,43.08
2022-12-14T04:48:23.906Z,39.47
2022-12-14T04:51:36.231Z,38.20
2022-12-14T04:55:00.911Z,31.20
2022-12-14T04:58:13.559Z,41.40
2022-12-14T05:01:49.483Z,37.90
2022-12-14T05:05:08.656Z,41.42
2022-12-14T05:08:27.170Z,38.22
2022-12-14T05:11:53.155Z,40.45
2022-12-14T05:15:08.065Z,39.17
2022-12-14T05:18:10.258Z,38.47
2022-12-14T05:21:34.769Z,36.65
2022-12-14T05:24:36.464Z,38.70
2022-12-14T05:27:40.874Z,40.45
2022-12-14T05:30:42.642Z,37.78
2022-12-14T05:33:50.445Z,40.55
2022-12-14T05:36:51.936Z,36.35
2022-12-14T05:39:54.545Z,37.40
2022-12-14T05:43:13.207Z,38.70
2022-12-14T05:46:17.219Z,41.08
2022-12-14T05:49:18.819Z,39.22
2022-12-14T05:52:20.513Z,38.95
2022-12-14T05:55:22.354Z,40.25
2022-12-14T05:58:23.872Z,42.67
2022-12-14T06:01:25.450Z,42.08
2022-12-14T06:04:27.123Z,38.90
2022-12-14T06:07:28.637Z,39.70
2022-12-14T06:10:30.172Z,42.45
2022-12-14T06:13:31.755Z,43.17
2022-12-14T06:16:34.208Z,44.35
2022-12-14T06:19:35.747Z,43.80
2022-12-14T06:22:39.478Z,55.13
2022-12-14T06:25:44.401Z,43.70
2022-12-14T06:28:46.114Z,46.55
2022-12-14T06:31:49.468Z,47.75
2022-12-14T06:34:51.348Z,44.95
2022-12-14T06:37:52.891Z,42.55
2022-12-14T06:40:55.080Z,41.17
2022-12-14T06:43:57.280Z,46.70
2022-12-14T06:46:58.950Z,44.67
2022-12-14T06:50:00.620Z,40.78
2022-12-14T06:53:02.132Z,47.03
2022-12-14T06:56:12.942Z,44.17
2022-12-14T06:59:16.656Z,40.33
2022-12-14T07:02:18.320Z,46.15
2022-12-14T07:05:20.533Z,41.47
2022-12-14T07:08:22.015Z,45.92
2022-12-14T07:11:24.190Z,43.38
2022-12-14T07:14:25.802Z,47.83
2022-12-14T07:17:27.956Z,47.80
2022-12-14T07:20:29.590Z,49.47
2022-12-14T07:23:33.509Z,52.22
2022-12-14T07:29:37.964Z,52.97
2022-12-14T07:32:39.507Z,53.33
2022-12-14T07:35:41.211Z,52.90
2022-12-14T07:38:44.539Z,46.00
2022-12-14T07:41:47.609Z,43.65
2022-12-14T07:44:55.367Z,47.65
2022-12-14T07:47:58.036Z,45.75
2022-12-14T07:51:08.271Z,46.20
2022-12-14T07:54:11.475Z,41.90
2022-12-14T07:57:13.010Z,44.40
2022-12-14T08:00:14.794Z,47.20
2022-12-14T08:03:16.446Z,54.22
2022-12-14T08:06:20.504Z,47.45
2022-12-14T08:12:23.682Z,47.58
2022-12-14T08:15:25.279Z,45.25
2022-12-14T08:18:26.799Z,44.28
2022-12-14T08:21:29.084Z,51.15
2022-12-14T08:24:30.587Z,39.22
2022-12-14T08:27:32.183Z,40.03
2022-12-14T08:30:38.912Z,46.63
2022-12-14T08:33:41.831Z,42.55
2022-12-14T08:36:43.401Z,37.42
2022-12-14T08:39:45.114Z,47.55
2022-12-14T08:42:51.198Z,40.17
2022-12-14T08:45:54.886Z,34.88
2022-12-14T08:48:56.843Z,35.15
2022-12-14T08:51:58.335Z,40.90
2022-12-14T08:55:00.042Z,35.05
2022-12-14T08:58:01.724Z,29.80
2022-12-14T09:01:12.305Z,28.83
2022-12-14T09:04:13.997Z,29.45
2022-12-14T09:07:15.898Z,30.42
2022-12-14T09:10:17.396Z,27.95
2022-12-14T09:13:19.094Z,28.60
2022-12-14T09:16:21.872Z,29.10
2022-12-14T09:19:23.458Z,25.05
2022-12-14T09:22:25.023Z,29.88
2022-12-14T09:25:26.741Z,27.83
2022-12-14T09:28:29.267Z,26.23
2022-12-14T09:31:30.843Z,29.33
2022-12-14T09:34:32.376Z,24.75
2022-12-14T09:37:33.926Z,24.25
2022-12-14T09:40:35.619Z,20.60
2022-12-14T09:43:47.857Z,21.92
2022-12-14T09:47:10.835Z,22.23
2022-12-14T09:50:18.785Z,22.38
2022-12-14T09:53:21.816Z,25.17
2022-12-14T09:56:23.564Z,25.98
2022-12-14T09:59:28.139Z,27.77
2022-12-14T10:02:45.124Z,29.55
2022-12-14T10:06:05.566Z,24.88
2022-12-14T10:09:14.761Z,25.15
2022-12-14T10:12:52.656Z,24.40
2022-12-14T10:16:00.321Z,21.63
2022-12-14T10:19:33.683Z,39.70
2022-12-14T10:22:39.672Z,21.77
2022-12-14T10:25:43.996Z,24.85
2022-12-14T10:29:00.944Z,19.60
2022-12-14T10:32:28.917Z,21.13
2022-12-14T10:35:45.660Z,21.45
2022-12-14T10:39:02.128Z,24.13
2022-12-14T10:42:34.049Z,21.25
2022-12-14T10:45:54.547Z,27.42
2022-12-14T10:49:21.138Z,28.60
2022-12-14T10:52:25.601Z,22.17
2022-12-14T10:55:38.805Z,24.55
2022-12-14T10:58:40.682Z,24.40
2022-12-14T11:01:42.960Z,23.45
2022-12-14T11:04:51.349Z,24.05
2022-12-14T11:07:53.023Z,24.92
2022-12-14T11:11:18.671Z,25.58
2022-12-14T11:14:23.403Z,24.75
2022-12-14T11:17:44.099Z,25.20
2022-12-14T11:21:04.441Z,24.63
2022-12-14T11:24:06.873Z,27.00
2022-12-14T11:27:11.136Z,25.42
2022-12-14T11:30:16.652Z,30.92
2022-12-14T11:33:18.262Z,26.30
2022-12-14T11:36:31.893Z,26.02
2022-12-14T11:39:40.892Z,22.33
2022-12-14T11:42:49.000Z,26.92
2022-12-14T11:45:51.608Z,25.67
2022-12-14T11:48:53.326Z,24.33
2022-12-14T11:52:20.073Z,23.95
2022-12-14T11:55:26.661Z,22.00
2022-12-14T11:58:33.519Z,22.25
2022-12-14T12:01:35.633Z,20.83
2022-12-14T12:04:44.324Z,23.92
2022-12-14T12:07:58.106Z,23.70
2022-12-14T12:11:02.561Z,24.13
2022-12-14T12:14:18.828Z,24.73
2022-12-14T12:17:36.144Z,29.55
2022-12-14T12:20:42.656Z,30.88
2022-12-14T12:23:57.301Z,29.48
2022-12-14T12:27:11.859Z,31.40
2022-12-14T12:30:29.297Z,32.42
2022-12-14T12:33:56.363Z,32.47
2022-12-14T12:37:25.960Z,33.28
2022-12-14T12:40:56.138Z,32.30
2022-12-14T12:44:49.548Z,32.83
2022-12-14T12:48:01.778Z,30.35
2022-12-14T12:51:13.285Z,33.40
2022-12-14T12:54:21.797Z,32.85
2022-12-14T12:57:28.325Z,30.45
2022-12-14T13:00:31.177Z,29.08
2022-12-14T13:03:47.201Z,29.35
2022-12-14T13:06:53.957Z,26.15
2022-12-14T13:10:05.875Z,27.85
2022-12-14T13:13:14.879Z,38.22
2022-12-14T13:16:29.410Z,29.42
2022-12-14T13:19:50.510Z,28.65
2022-12-14T13:22:53.723Z,30.00
2022-12-14T13:26:07.752Z,27.20
2022-12-14T13:29:27.539Z,28.33
2022-12-14T13:32:44.343Z,24.65
2022-12-14T13:36:18.115Z,25.08
2022-12-14T13:39:36.480Z,24.05
2022-12-14T13:42:52.732Z,24.00
2022-12-14T13:45:54.946Z,26.52
2022-12-14T13:49:06.821Z,24.65
2022-12-14T13:52:35.283Z,25.52
2022-12-14T13:55:46.132Z,25.63
2022-12-14T13:58:50.747Z,26.63
2022-12-14T14:01:55.653Z,27.58
2022-12-14T14:05:15.433Z,32.40
2022-12-14T14:08:41.018Z,29.08
2022-12-14T14:11:44.953Z,28.42
2022-12-14T14:15:51.978Z,31.77
2022-12-14T14:19:12.944Z,33.33
2022-12-14T14:22:27.127Z,37.97
2022-12-14T14:25:34.474Z,40.53
2022-12-14T14:28:37.903Z,39.83
2022-12-14T14:32:00.887Z,40.38
2022-12-14T14:35:27.216Z,36.15
2022-12-14T14:38:31.829Z,41.63
2022-12-14T14:41:42.484Z,36.25
2022-12-14T14:44:56.663Z,40.80
2022-12-14T14:48:02.219Z,35.20
2022-12-14T14:51:14.476Z,37.70
2022-12-14T14:54:37.011Z,39.75
2022-12-14T14:57:57.419Z,39.50
2022-12-14T15:01:06.171Z,40.50
2022-12-14T15:04:23.066Z,40.78
2022-12-14T15:07:29.850Z,39.20
2022-12-14T15:10:37.362Z,41.17
2022-12-14T15:14:35.545Z,44.22
2022-12-14T15:17:37.148Z,45.72
2022-12-14T15:20:40.768Z,42.88
2022-12-14T15:23:49.475Z,45.85
2022-12-14T15:26:51.952Z,49.85
2022-12-14T15:30:06.563Z,44.53
2022-12-14T15:33:10.104Z,47.50
2022-12-14T15:36:16.107Z,44.33
2022-12-14T15:39:29.323Z,48.38
2022-12-14T15:42:30.979Z,46.95
2022-12-14T15:45:41.145Z,48.53
2022-12-14T15:48:42.983Z,48.65
2022-12-14T15:51:44.789Z,43.45
2022-12-14T15:54:46.396Z,42.25
2022-12-14T15:57:48.369Z,41.63
2022-12-14T16:00:52.465Z,42.47
2022-12-14T16:07:08.261Z,42.78
2022-12-14T16:10:24.797Z,42.50
2022-12-14T16:13:37.019Z,43.60
2022-12-14T16:16:38.864Z,44.60
2022-12-14T16:19:58.492Z,48.53
2022-12-14T16:23:15.954Z,42.50
2022-12-14T16:26:26.786Z,43.30
2022-12-14T16:29:31.483Z,55.28
2022-12-14T16:32:33.012Z,45.22
2022-12-14T16:35:37.225Z,43.45
2022-12-14T16:38:54.995Z,47.22
2022-12-14T16:42:01.095Z,53.90
2022-12-14T16:45:02.779Z,54.45
2022-12-14T16:48:14.573Z,48.40
2022-12-14T16:51:32.762Z,48.47
2022-12-14T16:54:40.745Z,59.03
2022-12-14T16:57:52.631Z,50.15
2022-12-14T17:01:00.875Z,61.70
2022-12-14T17:04:04.932Z,48.88
2022-12-14T17:07:06.808Z,53.15
2022-12-14T17:10:16.076Z,55.00
2022-12-14T17:13:17.948Z,48.60
2022-12-14T17:16:21.078Z,59.13
2022-12-14T17:19:37.051Z,50.53
2022-12-14T17:22:38.639Z,48.13
2022-12-14T17:25:44.669Z,55.47
2022-12-14T17:28:48.267Z,45.03
2022-12-14T17:31:52.375Z,49.13
2022-12-14T17:37:55.794Z,45.63
2022-12-14T17:40:57.457Z,48.33
2022-12-14T17:43:59.008Z,46.22
2022-12-14T17:47:00.569Z,40.13
2022-12-14T17:50:02.162Z,42.90
2022-12-14T17:53:03.714Z,44.17
2022-12-14T17:56:05.588Z,39.78
2022-12-14T17:59:07.185Z,44.85
2022-12-14T18:02:30.161Z,41.10
2022-12-14T18:05:34.255Z,41.63
2022-12-14T18:08:35.907Z,39.30
2022-12-14T18:11:49.355Z,40.75
2022-12-14T18:14:59.773Z,43.75
2022-12-14T18:18:01.690Z,39.88
2022-12-14T18:21:04.892Z,40.97
2022-12-14T18:24:11.507Z,42.70
2022-12-14T18:27:13.729Z,38.28
2022-12-14T18:30:15.360Z,34.35
2022-12-14T18:33:19.397Z,36.05
2022-12-14T18:36:21.565Z,36.88
2022-12-14T18:39:23.171Z,38.75
2022-12-14T18:42:25.391Z,31.55
2022-12-14T18:45:33.830Z,33.80
2022-12-14T18:48:35.294Z,34.35
2022-12-14T18:51:36.790Z,34.97
2022-12-14T18:54:38.232Z,33.38
2022-12-14T18:57:39.847Z,33.10
2022-12-14T19:00:41.368Z,32.28
2022-12-14T19:03:43.807Z,35.60
2022-12-14T19:06:46.040Z,32.97
2022-12-14T19:09:47.777Z,34.33
2022-12-14T19:12:50.582Z,35.42
2022-12-14T19:15:52.722Z,35.33
2022-12-14T19:18:54.409Z,33.78
2022-12-14T19:21:56.029Z,31.63
2022-12-14T19:24:57.632Z,34.25
2022-12-14T19:28:26.118Z,44.63
2022-12-14T19:31:22.062Z,45.08
2022-12-14T19:34:23.872Z,49.45
2022-12-14T19:37:25.555Z,47.78
2022-12-14T19:40:27.268Z,50.53
2022-12-14T19:43:29.833Z,47.45
2022-12-14T19:46:31.775Z,43.10
2022-12-14T19:49:33.540Z,43.20
2022-12-14T19:52:35.348Z,33.17
2022-12-14T19:55:36.870Z,31.67
2022-12-14T19:58:38.483Z,34.15
2022-12-14T20:01:46.260Z,30.30
2022-12-14T20:04:49.319Z,27.88
2022-12-14T20:07:50.905Z,28.15
2022-12-14T20:10:53.139Z,29.85
2022-12-14T20:13:58.897Z,29.63
2022-12-14T20:17:02.619Z,28.20
2022-12-14T20:20:04.563Z,28.95
2022-12-14T20:23:06.064Z,32.38
2022-12-14T20:26:12.202Z,46.70
2022-12-14T20:29:13.870Z,34.40
2022-12-14T20:32:15.520Z,38.55
2022-12-14T20:35:18.746Z,40.97
2022-12-14T20:38:20.266Z,36.70
2022-12-14T20:41:22.780Z,34.55
2022-12-14T20:44:24.385Z,36.10
2022-12-14T20:47:26.027Z,35.03
2022-12-14T20:50:27.641Z,41.72
2022-12-14T20:53:30.651Z,36.55
2022-12-14T20:56:34.315Z,38.17
2022-12-14T20:59:35.973Z,37.50
2022-12-14T21:03:02.620Z,35.65
2022-12-14T21:06:04.556Z,35.45
2022-12-14T21:09:10.322Z,40.70
2022-12-14T21:12:20.640Z,30.63
2022-12-14T21:15:22.217Z,32.78
2022-12-14T21:18:24.632Z,36.20
2022-12-14T21:21:26.476Z,33.22
2022-12-14T21:25:01.100Z,32.88
2022-12-14T21:27:49.965Z,31.20
2022-12-14T21:30:51.532Z,31.02
2022-12-14T21:33:54.600Z,28.85
2022-12-14T21:36:56.448Z,34.40
2022-12-14T21:39:58.025Z,30.02
2022-12-14T21:42:59.547Z,28.10
2022-12-14T21:46:01.196Z,48.30
2022-12-14T21:49:03.210Z,24.15
2022-12-14T21:52:07.545Z,23.95
2022-12-14T21:55:09.536Z,26.40
2022-12-14T21:58:17.220Z,24.88
2022-12-14T22:01:18.977Z,21.98
2022-12-14T22:04:24.523Z,27.23
2022-12-14T22:07:31.268Z,19.80
2022-12-14T22:10:32.862Z,21.27
2022-12-14T22:13:37.669Z,21.00
2022-12-14T22:16:40.968Z,19.35
2022-12-14T22:19:42.700Z,19.23
2022-12-14T22:22:44.889Z,18.05
2022-12-14T22:25:50.211Z,26.83
2022-12-14T22:28:52.725Z,22.08
2022-12-14T22:31:54.238Z,41.17
2022-12-14T22:34:55.882Z,24.48
2022-12-14T22:37:58.779Z,23.98
2022-12-14T22:41:05.099Z,28.30
2022-12-14T22:44:11.620Z,53.67
2022-12-14T22:47:13.328Z,47.28
2022-12-14T22:50:15.006Z,58.33
2022-12-14T22:53:26.721Z,72.15
2022-12-14T22:56:57.666Z,63.58
2022-12-14T23:00:04.837Z,56.05
2022-12-14T23:03:06.836Z,63.75
2022-12-14T23:06:15.505Z,43.42
2022-12-14T23:09:35.437Z,49.15
2022-12-14T23:12:55.760Z,37.78
2022-12-14T23:16:16.021Z,30.90
2022-12-14T23:19:36.103Z,31.15
2022-12-14T23:22:56.485Z,29.83
2022-12-14T23:26:20.532Z,20.23
2022-12-14T23:29:40.397Z,17.10
2022-12-14T23:33:00.319Z,21.73
2022-12-14T23:36:20.368Z,18.73
2022-12-14T23:39:40.235Z,17.45
2022-12-14T23:43:00.253Z,18.13
2022-12-14T23:46:24.499Z,15.88
2022-12-14T23:49:44.620Z,15.55
2022-12-14T23:53:04.495Z,16.30
2022-12-14T23:56:25.106Z,14.40
2022-12-14T23:59:49.532Z,16.02
